Time;durP1;ratioP1;P1;durP2;ratioP2;P2;SDS_P1;SDS_P2;PMS_P1;PMS_P2;Temp;Humidity;BMP_temperature;BMP_pressure;BME280_temperature;BME280_humidity;BME280_pressure;Samples;Min_cycle;Max_cycle;Signal;HPM_P1;HPM_P2
2024/01/29 00:02:15;;;;;;;8.57;3.22;;;;;;;2.10;76.79;100053.44;5050357;28;20021;-80
2024/01/29 00:04:41;;;;;;;4.53;3.08;;;;;;;2.10;76.96;100058.69;5050404;28;20095;-78
2024/01/29 00:07:06;;;;;;;8.52;3.92;;;;;;;2.08;76.98;100048.34;5056058;28;20051;-78
2024/01/29 00:09:32;;;;;;;4.28;3.35;;;;;;;2.02;77.21;100049.00;5033762;28;20178;-78
2024/01/29 00:11:57;;;;;;;4.78;3.22;;;;;;;2.13;77.02;100051.31;5034069;28;20032;-78
2024/01/29 00:14:23;;;;;;;6.03;2.92;;;;;;;2.04;76.82;100043.56;5052426;28;20039;-80
2024/01/29 00:16:48;;;;;;;3.30;3.00;;;;;;;1.96;76.95;100040.94;5053643;28;20436;-80
2024/01/29 00:19:14;;;;;;;4.93;3.38;;;;;;;1.92;77.04;100032.53;5054395;28;20802;-79
2024/01/29 00:21:39;;;;;;;6.97;3.78;;;;;;;1.93;77.32;100028.09;5059404;28;20583;-79
2024/01/29 00:24:05;;;;;;;4.50;3.40;;;;;;;1.96;77.21;100031.25;5039661;28;20037;-79
2024/01/29 00:26:32;;;;;;;6.38;3.28;;;;;;;1.94;76.85;100021.84;5031822;28;20044;-80
2024/01/29 00:28:57;;;;;;;7.25;3.33;;;;;;;1.95;76.99;100024.31;5049614;28;20056;-80
2024/01/29 00:31:23;;;;;;;3.53;2.97;;;;;;;1.96;76.76;100028.59;5060149;28;20037;-79
2024/01/29 00:33:49;;;;;;;6.32;3.55;;;;;;;1.93;76.83;100018.41;5056496;28;20041;-79
2024/01/29 00:36:15;;;;;;;7.35;2.78;;;;;;;1.88;77.00;100009.34;5053176;28;20029;-79
2024/01/29 00:38:40;;;;;;;7.93;2.75;;;;;;;1.90;76.33;100016.06;5073010;28;20091;-79
2024/01/29 00:41:05;;;;;;;5.15;3.17;;;;;;;1.88;76.96;100017.25;5051796;28;20115;-77
2024/01/29 00:43:31;;;;;;;5.95;3.15;;;;;;;1.92;76.57;100011.47;5053368;28;20378;-78
2024/01/29 00:45:56;;;;;;;6.38;3.20;;;;;;;1.87;76.57;100010.34;5033206;28;20420;-78
2024/01/29 00:48:23;;;;;;;4.03;2.88;;;;;;;1.90;76.36;100025.81;5052567;28;20064;-79
2024/01/29 00:50:49;;;;;;;6.07;3.60;;;;;;;1.88;76.69;100020.69;5051436;28;20036;-79
2024/01/29 00:53:15;;;;;;;6.05;3.33;;;;;;;1.95;76.11;100015.59;5056864;28;20033;-80
2024/01/29 00:55:43;;;;;;;7.03;2.85;;;;;;;1.94;76.16;100013.97;5049491;28;20025;-80
2024/01/29 00:58:09;;;;;;;5.82;2.78;;;;;;;1.98;76.38;100010.00;5054927;28;20037;-78
2024/01/29 01:00:35;;;;;;;3.85;2.80;;;;;;;1.95;76.27;100007.69;5036909;28;20055;-78
2024/01/29 01:03:00;;;;;;;7.05;3.05;;;;;;;1.97;76.24;99996.00;5051953;28;20049;-78
2024/01/29 01:05:25;;;;;;;6.38;2.97;;;;;;;2.19;75.41;100010.31;5050757;28;20052;-80
2024/01/29 01:07:51;;;;;;;7.18;2.70;;;;;;;2.02;75.67;99993.72;5052204;28;20050;-80
2024/01/29 01:10:16;;;;;;;4.82;2.67;;;;;;;2.05;75.86;100006.53;5056373;28;20068;-80
2024/01/29 01:12:42;;;;;;;5.85;3.00;;;;;;;2.11;75.62;99999.78;5050723;28;20041;-78
2024/01/29 01:15:08;;;;;;;4.60;3.17;;;;;;;2.06;75.87;100004.72;5052696;28;20037;-80
2024/01/29 01:17:34;;;;;;;7.55;3.65;;;;;;;2.10;75.93;99995.50;5052486;28;20048;-81
2024/01/29 01:19:59;;;;;;;6.63;2.95;;;;;;;2.14;75.51;99992.38;5058186;28;20033;-80
2024/01/29 01:22:25;;;;;;;4.78;3.05;;;;;;;2.06;75.86;99997.66;5056160;28;20098;-79
2024/01/29 01:24:50;;;;;;;3.08;2.70;;;;;;;2.07;75.81;99998.50;5053829;28;20060;-80
2024/01/29 01:27:16;;;;;;;6.47;2.65;;;;;;;2.19;75.50;99994.50;5050334;28;20061;-80
2024/01/29 01:29:43;;;;;;;3.53;2.40;;;;;;;2.15;75.52;99993.19;5048764;28;20511;-79
2024/01/29 01:32:09;;;;;;;4.45;2.72;;;;;;;2.07;75.80;99999.31;5052653;28;20090;-80
2024/01/29 01:34:34;;;;;;;4.05;2.60;;;;;;;2.04;75.87;99997.00;5056698;28;20028;-80
2024/01/29 01:36:59;;;;;;;6.88;2.58;;;;;;;2.03;75.48;99990.06;5051393;28;20041;-79
2024/01/29 01:39:25;;;;;;;5.70;2.83;;;;;;;1.99;75.85;100001.94;5054816;28;20025;-78
2024/01/29 01:41:50;;;;;;;6.28;3.03;;;;;;;2.03;75.84;99992.72;5058951;28;20104;-78
2024/01/29 01:44:16;;;;;;;4.80;2.45;;;;;;;2.17;75.46;99991.22;5054298;28;20118;-80
2024/01/29 01:46:41;;;;;;;4.00;2.63;;;;;;;2.01;75.57;99991.25;5055286;28;20056;-79
2024/01/29 01:49:06;;;;;;;3.28;2.30;;;;;;;1.96;76.07;99983.03;5052816;28;20543;-79
2024/01/29 01:51:32;;;;;;;5.63;2.78;;;;;;;2.05;75.83;99982.03;5051825;28;20461;-78
2024/01/29 01:54:00;;;;;;;6.38;3.17;;;;;;;2.06;75.62;99992.38;5052303;28;20033;-79
2024/01/29 01:56:27;;;;;;;10.15;2.70;;;;;;;2.19;75.35;99984.81;5050451;28;20033;-78
2024/01/29 01:58:54;;;;;;;5.25;2.40;;;;;;;2.16;75.40;99985.13;5051532;28;20063;-80
2024/01/29 02:01:20;;;;;;;3.40;2.08;;;;;;;2.14;75.31;99975.78;5053800;28;20045;-78
2024/01/29 02:03:45;;;;;;;3.40;2.67;;;;;;;1.94;75.85;99962.13;5055925;28;20121;-78
2024/01/29 02:06:12;;;;;;;4.22;2.50;;;;;;;2.02;75.32;99969.19;5047182;28;20021;-78
2024/01/29 02:08:38;;;;;;;3.08;2.63;;;;;;;1.99;75.55;99977.41;5047706;28;20032;-79
2024/01/29 02:11:04;;;;;;;4.28;2.15;;;;;;;1.96;75.92;99975.13;5049482;28;20086;-80
2024/01/29 02:13:30;;;;;;;4.45;2.25;;;;;;;1.90;75.45;99962.63;5054781;28;20020;-79
2024/01/29 02:15:55;;;;;;;4.20;2.38;;;;;;;1.88;75.65;99975.94;5053383;28;20032;-80
2024/01/29 02:18:21;;;;;;;3.50;2.13;;;;;;;1.94;75.66;99969.22;5052095;28;22335;-78
2024/01/29 02:20:46;;;;;;;2.78;2.22;;;;;;;1.86;75.90;99962.13;5050909;28;20444;-79
2024/01/29 02:23:11;;;;;;;4.68;2.13;;;;;;;1.73;75.46;99951.28;5053546;28;20182;-79
2024/01/29 02:25:37;;;;;;;2.45;2.25;;;;;;;1.85;75.35;99970.19;5036001;28;20052;-79
2024/01/29 02:28:03;;;;;;;4.28;2.20;;;;;;;1.89;75.18;99964.44;5053101;28;20036;-78
2024/01/29 02:30:28;;;;;;;5.40;2.22;;;;;;;1.79;75.43;99974.28;5052476;28;20477;-79
2024/01/29 02:32:53;;;;;;;4.80;2.60;;;;;;;1.83;75.37;99969.53;5045272;28;20529;-80
2024/01/29 02:35:19;;;;;;;4.85;2.80;;;;;;;1.82;75.29;99973.97;5056387;28;20103;-78
2024/01/29 02:37:44;;;;;;;3.50;2.58;;;;;;;1.76;75.26;99966.75;5054849;28;20021;-79
2024/01/29 02:40:10;;;;;;;2.75;1.88;;;;;;;1.78;74.99;99979.72;5052922;28;20056;-80
2024/01/29 02:42:36;;;;;;;4.75;2.30;;;;;;;1.72;75.40;99975.97;5053568;28;20029;-80
2024/01/29 02:45:03;;;;;;;4.20;2.22;;;;;;;1.57;75.33;99947.84;5051895;28;20031;-79
2024/01/29 02:47:28;;;;;;;5.10;2.40;;;;;;;1.61;75.70;99955.22;5053901;28;20025;-81
2024/01/29 02:49:53;;;;;;;4.45;3.97;;;;;;;1.83;75.34;99980.06;5050361;28;20037;-80
2024/01/29 02:52:19;;;;;;;2.63;2.22;;;;;;;1.84;75.21;99961.47;5050443;28;20051;-79
2024/01/29 02:54:44;;;;;;;3.17;2.67;;;;;;;1.85;75.83;99967.56;5052463;28;20060;-79
2024/01/29 02:57:10;;;;;;;2.90;2.03;;;;;;;1.80;75.52;99968.06;5051658;28;20040;-79
2024/01/29 02:59:35;;;;;;;3.67;2.47;;;;;;;1.93;75.07;99959.66;5032760;28;20036;-79
2024/01/29 03:02:01;;;;;;;6.18;2.20;;;;;;;1.93;74.97;99960.47;5051195;28;20547;-79
2024/01/29 03:04:26;;;;;;;3.22;2.08;;;;;;;2.00;74.97;99948.31;5052665;28;20045;-79
2024/01/29 03:06:52;;;;;;;2.80;1.98;;;;;;;2.10;74.55;99959.47;5049938;28;20106;-80
2024/01/29 03:09:17;;;;;;;3.45;1.80;;;;;;;1.94;74.96;99956.88;5050548;28;20033;-79
2024/01/29 03:11:43;;;;;;;5.63;2.05;;;;;;;2.00;74.59;99965.91;5017212;28;20041;-79
2024/01/29 03:14:09;;;;;;;3.70;1.92;;;;;;;2.10;74.32;99966.53;5051006;28;20028;-78
2024/01/29 03:16:34;;;;;;;2.58;2.10;;;;;;;2.01;74.15;99963.09;5034435;28;20033;-79
2024/01/29 03:19:00;;;;;;;3.33;2.10;;;;;;;2.07;74.58;99970.34;5050064;28;20028;-79
2024/01/29 03:21:28;;;;;;;3.75;2.00;;;;;;;2.07;74.86;99962.44;5052576;28;20025;-79
2024/01/29 03:23:56;;;;;;;2.80;2.20;;;;;;;1.93;74.83;99972.81;5048620;28;20529;-79
2024/01/29 03:26:22;;;;;;;2.75;2.10;;;;;;;2.09;74.58;99965.75;5034149;28;20024;-79
2024/01/29 03:28:47;;;;;;;5.15;2.13;;;;;;;1.91;74.47;99961.63;5052183;28;20126;-79
2024/01/29 03:31:13;;;;;;;5.15;2.00;;;;;;;2.14;74.71;99968.69;5052245;28;20104;-79
2024/01/29 03:33:38;;;;;;;2.10;1.67;;;;;;;2.06;74.74;99965.22;5052624;28;20048;-79
2024/01/29 03:36:05;;;;;;;3.47;2.13;;;;;;;2.13;74.36;99971.47;5043546;28;20029;-79
2024/01/29 03:38:30;;;;;;;2.47;2.10;;;;;;;2.00;74.75;99964.09;5048293;28;20489;-80
2024/01/29 03:40:55;;;;;;;4.53;2.00;;;;;;;1.99;74.89;99953.72;5032320;28;20094;-79
2024/01/29 03:43:21;;;;;;;2.78;2.22;;;;;;;1.99;74.57;99964.25;5056082;28;20029;-80
2024/01/29 03:45:51;;;;;;;3.95;1.95;;;;;;;1.88;74.65;99962.78;5050052;28;20028;-80
2024/01/29 03:48:16;;;;;;;2.95;2.10;;;;;;;2.00;74.63;99966.72;5047299;28;20029;-78
2024/01/29 03:50:42;;;;;;;3.03;1.80;;;;;;;2.05;74.77;99967.03;5053570;28;20041;-79
2024/01/29 03:53:07;;;;;;;2.08;1.77;;;;;;;1.93;74.62;99967.56;5051327;28;20033;-79
2024/01/29 03:55:35;;;;;;;3.35;2.03;;;;;;;2.00;74.45;99964.09;5048755;28;20029;-78
2024/01/29 03:58:01;;;;;;;2.78;2.17;;;;;;;1.95;74.42;99958.50;5028415;28;20033;-79
2024/01/29 04:00:26;;;;;;;2.10;1.90;;;;;;;1.99;74.63;99965.06;5056049;28;20437;-80
2024/01/29 04:02:52;;;;;;;4.22;2.47;;;;;;;2.01;74.62;99971.00;5036309;28;20102;-80
2024/01/29 04:05:18;;;;;;;2.63;2.03;;;;;;;1.98;74.77;99973.16;5059988;28;20100;-79
2024/01/29 04:07:47;;;;;;;3.63;2.20;;;;;;;1.87;74.61;99976.13;5038526;28;20037;-81
2024/01/29 04:10:13;;;;;;;3.53;1.95;;;;;;;1.92;74.74;99976.44;5058391;28;20036;-79
2024/01/29 04:12:38;;;;;;;2.65;2.33;;;;;;;1.79;75.32;99978.75;5051826;28;20033;-78
2024/01/29 04:15:04;;;;;;;3.05;2.08;;;;;;;1.74;74.94;99975.78;5049435;28;20131;-80
2024/01/29 04:17:30;;;;;;;3.15;1.73;;;;;;;1.68;74.94;99971.19;5047605;28;20124;-79
2024/01/29 04:19:55;;;;;;;2.97;2.33;;;;;;;1.72;74.96;99970.69;5049344;28;20071;-80
2024/01/29 04:22:21;;;;;;;2.63;2.20;;;;;;;1.72;74.78;99972.50;5054485;28;20037;-78
2024/01/29 04:24:46;;;;;;;4.05;2.28;;;;;;;1.73;74.81;99972.31;5046785;28;20436;-78
2024/01/29 04:27:12;;;;;;;4.47;2.20;;;;;;;1.78;74.62;99977.94;5054107;28;20037;-79
2024/01/29 04:29:38;;;;;;;2.40;2.08;;;;;;;1.91;74.32;99974.78;5046919;28;20032;-78
2024/01/29 04:32:04;;;;;;;3.50;2.05;;;;;;;1.86;74.25;99964.75;5060601;28;20059;-78
2024/01/29 04:34:29;;;;;;;4.18;2.10;;;;;;;1.81;74.49;99971.50;5051285;28;20509;-79
2024/01/29 04:36:54;;;;;;;4.05;2.20;;;;;;;1.74;74.53;99967.88;5032813;28;20039;-81
2024/01/29 04:39:19;;;;;;;2.53;1.67;;;;;;;1.72;74.65;99975.13;5058002;28;20496;-78
2024/01/29 04:41:45;;;;;;;2.47;2.08;;;;;;;1.79;74.68;99978.75;5057986;28;21777;-78
2024/01/29 04:44:11;;;;;;;7.65;4.50;;;;;;;1.82;74.66;99973.16;5039264;28;20028;-78
2024/01/29 04:46:36;;;;;;;2.42;1.95;;;;;;;1.74;74.63;99973.97;5055040;28;20112;-78
2024/01/29 04:49:02;;;;;;;4.03;2.22;;;;;;;1.72;74.68;99975.13;5050276;28;20065;-78
2024/01/29 04:51:27;;;;;;;2.72;2.50;;;;;;;1.78;74.88;99967.41;5051160;28;20392;-78
2024/01/29 04:53:53;;;;;;;2.97;2.13;;;;;;;1.76;74.55;99963.28;5053324;28;20058;-79
2024/01/29 04:56:18;;;;;;;3.65;2.20;;;;;;;1.78;74.46;99956.88;5037000;28;20130;-78
2024/01/29 04:58:44;;;;;;;3.28;2.40;;;;;;;1.69;74.53;99957.84;5051024;28;20503;-78
2024/01/29 05:01:09;;;;;;;3.72;2.28;;;;;;;1.71;74.84;99962.94;5034461;28;20102;-78
2024/01/29 05:03:35;;;;;;;3.90;1.98;;;;;;;1.65;74.48;99937.28;5051772;28;20037;-78
2024/01/29 05:06:01;;;;;;;5.03;2.03;;;;;;;1.71;74.63;99948.00;5050875;28;20142;-78
2024/01/29 05:08:27;;;;;;;3.50;2.40;;;;;;;1.64;74.67;99946.19;5050254;28;20028;-81
2024/01/29 05:10:52;;;;;;;1.95;1.83;;;;;;;1.74;74.55;99942.41;5050126;28;20024;-77
2024/01/29 05:13:22;;;;;;;5.25;2.60;;;;;;;1.70;74.49;99937.63;5044747;28;20060;-84
2024/01/29 05:15:47;;;;;;;3.75;2.17;;;;;;;1.62;74.82;99945.53;5030452;28;20049;-77
2024/01/29 05:18:13;;;;;;;3.75;2.00;;;;;;;1.55;74.34;99928.75;5037501;28;21868;-77
2024/01/29 05:20:38;;;;;;;4.35;2.30;;;;;;;1.70;75.21;99956.06;5039152;28;20033;-77
2024/01/29 05:23:03;;;;;;;3.72;2.45;;;;;;;1.71;74.47;99955.06;5046854;28;20037;-77
2024/01/29 05:25:29;;;;;;;3.45;2.17;;;;;;;1.73;74.33;99953.91;5029028;28;20028;-77
2024/01/29 05:27:54;;;;;;;3.90;2.95;;;;;;;1.70;74.35;99940.28;5051107;28;20032;-77
2024/01/29 05:30:20;;;;;;;4.28;2.65;;;;;;;1.68;74.53;99945.69;5049499;28;20041;-77
2024/01/29 05:32:45;;;;;;;3.45;2.38;;;;;;;1.70;74.21;99932.38;5050900;28;20021;-77
2024/01/29 05:35:11;;;;;;;5.88;2.85;;;;;;;1.70;74.17;99925.31;5048947;28;20144;-77
2024/01/29 05:37:36;;;;;;;2.88;2.47;;;;;;;1.78;74.46;99935.81;5044337;28;20048;-77
2024/01/29 05:40:02;;;;;;;4.72;2.67;;;;;;;1.75;74.55;99948.50;5043835;28;20035;-78
2024/01/29 05:42:27;;;;;;;3.58;2.38;;;;;;;1.72;74.19;99933.03;5042173;28;20056;-78
2024/01/29 05:44:53;;;;;;;4.97;2.45;;;;;;;1.79;74.63;99936.66;5030292;28;20078;-77
2024/01/29 05:47:18;;;;;;;3.92;2.40;;;;;;;1.83;74.37;99943.22;5048286;28;20599;-77
2024/01/29 05:49:44;;;;;;;3.05;2.17;;;;;;;1.82;74.20;99942.41;5049541;28;20474;-77
2024/01/29 05:52:09;;;;;;;3.70;2.65;;;;;;;1.83;74.37;99937.97;5049389;28;20362;-77
2024/01/29 05:54:36;;;;;;;5.63;2.63;;;;;;;1.72;74.87;99935.66;5050365;28;20485;-78
2024/01/29 05:57:02;;;;;;;3.17;2.72;;;;;;;1.82;74.44;99941.56;5032260;28;20033;-78
2024/01/29 05:59:27;;;;;;;2.67;1.92;;;;;;;1.76;74.42;99944.88;5043468;28;20090;-78
2024/01/29 06:01:52;;;;;;;2.75;2.40;;;;;;;1.84;74.46;99940.41;5048965;28;20401;-77
2024/01/29 06:04:18;;;;;;;2.90;2.13;;;;;;;1.85;74.02;99939.44;5046986;28;20074;-78
2024/01/29 06:06:43;;;;;;;6.18;2.67;;;;;;;1.79;74.25;99929.56;5045014;28;21588;-78
2024/01/29 06:09:09;;;;;;;2.72;2.13;;;;;;;1.94;73.87;99946.34;5050113;28;20122;-77
2024/01/29 06:11:36;;;;;;;3.38;2.75;;;;;;;1.92;74.08;99936.97;5049523;28;20029;-78
2024/01/29 06:14:02;;;;;;;2.95;2.20;;;;;;;1.77;74.35;99949.16;5043218;28;20502;-77
2024/01/29 06:16:28;;;;;;;4.53;2.50;;;;;;;1.85;74.32;99942.06;5048983;28;20025;-77
2024/01/29 06:18:54;;;;;;;4.85;2.65;;;;;;;1.96;74.43;99948.81;5015127;28;20035;-79
2024/01/29 06:21:20;;;;;;;3.33;2.40;;;;;;;1.88;74.35;99946.19;5052282;28;20033;-77
2024/01/29 06:23:45;;;;;;;3.25;2.75;;;;;;;1.75;73.79;99946.66;5048650;28;20028;-79
2024/01/29 06:26:10;;;;;;;4.97;2.50;;;;;;;1.82;74.49;99944.19;5051405;28;20025;-78
2024/01/29 06:28:36;;;;;;;2.35;2.10;;;;;;;1.85;74.77;99938.59;5048516;28;20381;-77
2024/01/29 06:31:01;;;;;;;4.03;2.63;;;;;;;1.76;74.43;99947.50;5046737;28;20025;-77
2024/01/29 06:33:27;;;;;;;2.95;2.17;;;;;;;1.77;74.69;99947.31;5036555;28;20033;-78
2024/01/29 06:35:53;;;;;;;4.03;2.92;;;;;;;1.58;74.64;99949.47;5060172;28;20020;-77
2024/01/29 06:38:19;;;;;;;2.72;2.40;;;;;;;1.75;75.35;99961.66;5053143;28;20039;-78
2024/01/29 06:40:44;;;;;;;5.47;2.70;;;;;;;1.71;74.88;99947.16;5052620;28;20037;-78
2024/01/29 06:43:09;;;;;;;4.05;2.42;;;;;;;1.73;75.11;99950.44;5047589;28;20500;-78
2024/01/29 06:45:35;;;;;;;3.63;2.60;;;;;;;1.61;75.46;99952.59;5053450;28;20539;-79
2024/01/29 06:48:01;;;;;;;3.25;2.88;;;;;;;1.56;75.28;99961.94;5054694;28;20544;-79
2024/01/29 06:50:27;;;;;;;6.22;2.83;;;;;;;1.45;75.49;99955.22;5054218;28;20029;-79
2024/01/29 06:52:52;;;;;;;4.85;2.80;;;;;;;1.51;75.35;99965.91;5053092;28;20037;-79
2024/01/29 06:55:20;;;;;;;3.85;2.25;;;;;;;1.44;75.62;99951.75;5053511;28;20025;-78
2024/01/29 06:57:46;;;;;;;6.47;2.85;;;;;;;1.49;75.51;99959.16;5033445;28;20021;-78
2024/01/29 07:00:12;;;;;;;2.47;2.00;;;;;;;1.51;75.42;99963.28;5050033;28;20033;-78
2024/01/29 07:02:37;;;;;;;3.97;2.80;;;;;;;1.58;75.48;99968.69;5050970;28;20039;-78
2024/01/29 07:05:03;;;;;;;2.72;2.33;;;;;;;1.53;75.58;99960.47;5049955;28;20468;-79
2024/01/29 07:07:29;;;;;;;5.78;2.70;;;;;;;1.64;75.27;99961.97;5046794;28;20068;-77
2024/01/29 07:09:54;;;;;;;5.85;2.80;;;;;;;1.48;75.04;99958.34;5041843;28;20053;-78
2024/01/29 07:12:20;;;;;;;4.00;2.47;;;;;;;1.44;75.68;99980.69;5050082;28;20076;-77
2024/01/29 07:14:45;;;;;;;4.35;2.90;;;;;;;1.51;75.63;99976.44;5032790;28;20044;-77
2024/01/29 07:17:11;;;;;;;2.42;2.08;;;;;;;1.62;75.44;99967.38;5050572;28;20032;-77
2024/01/29 07:19:36;;;;;;;2.90;2.20;;;;;;;1.52;75.06;99972.00;5050854;28;20033;-77
2024/01/29 07:22:08;;;;;;;5.07;3.00;;;;;;;1.60;75.39;99979.06;5042591;28;20032;-77
2024/01/29 07:24:34;;;;;;;3.60;2.65;;;;;;;1.60;75.31;99992.22;5048513;28;20032;-77
2024/01/29 07:27:00;;;;;;;7.82;2.90;;;;;;;1.64;75.31;99986.47;5049959;28;20374;-78
2024/01/29 07:29:30;;;;;;;2.97;2.05;;;;;;;1.64;75.11;99983.03;5044184;28;20039;-77
2024/01/29 07:31:55;;;;;;;4.05;2.67;;;;;;;1.59;75.62;99999.31;5048361;28;20023;-81
2024/01/29 07:34:21;;;;;;;4.95;3.30;;;;;;;1.66;74.96;99987.13;5049403;28;20045;-79
2024/01/29 07:36:47;;;;;;;3.83;2.88;;;;;;;1.67;74.98;99985.31;5047438;28;20116;-79
2024/01/29 07:39:13;;;;;;;3.47;2.83;;;;;;;1.61;75.24;99996.50;5051771;28;20036;-78
2024/01/29 07:41:39;;;;;;;4.95;2.80;;;;;;;1.57;75.53;100006.53;5055856;28;20032;-77
2024/01/29 07:44:05;;;;;;;5.22;3.33;;;;;;;1.54;75.50;100017.38;5055781;28;20056;-78
2024/01/29 07:46:30;;;;;;;6.32;3.03;;;;;;;1.51;75.49;100020.31;5052584;28;20497;-78
2024/01/29 07:48:56;;;;;;;6.60;3.08;;;;;;;1.50;75.66;100016.88;5028047;28;20108;-78
2024/01/29 07:51:21;;;;;;;7.88;3.28;;;;;;;1.60;75.52;100024.59;5050989;28;20060;-80
2024/01/29 07:53:47;;;;;;;4.10;3.03;;;;;;;1.75;75.26;100015.09;5051313;28;20124;-78
2024/01/29 07:56:12;;;;;;;3.75;2.65;;;;;;;1.77;75.02;100015.75;5051787;28;20033;-78
2024/01/29 07:58:37;;;;;;;8.43;3.25;;;;;;;1.85;74.87;100015.78;5050301;28;20036;-79
2024/01/29 08:01:03;;;;;;;4.78;2.80;;;;;;;1.88;75.08;100017.25;5036216;28;20389;-77
2024/01/29 08:03:28;;;;;;;3.42;2.60;;;;;;;1.80;75.21;100010.16;5055773;28;20043;-78
2024/01/29 08:05:53;;;;;;;3.78;2.50;;;;;;;1.96;74.85;100017.25;5030679;28;20108;-80
2024/01/29 08:08:19;;;;;;;3.75;3.10;;;;;;;1.92;74.85;100002.78;5048321;28;20063;-78
2024/01/29 08:10:44;;;;;;;2.65;2.45;;;;;;;2.01;74.78;100010.47;5055290;28;20025;-78
2024/01/29 08:13:10;;;;;;;6.70;3.00;;;;;;;1.96;74.72;100017.25;5054830;28;20094;-79
2024/01/29 08:15:35;;;;;;;4.10;2.80;;;;;;;2.01;74.85;100012.31;5055305;28;20033;-78
2024/01/29 08:18:02;;;;;;;4.18;3.08;;;;;;;1.99;74.99;100020.34;5054989;28;20036;-78
2024/01/29 08:20:27;;;;;;;6.82;2.92;;;;;;;2.02;75.13;100032.38;5046596;28;20025;-78
2024/01/29 08:22:53;;;;;;;4.57;3.33;;;;;;;2.03;74.89;100026.13;5042608;28;20028;-79
2024/01/29 08:25:21;;;;;;;4.60;2.88;;;;;;;1.87;74.90;100026.13;5050064;28;20037;-79
2024/01/29 08:27:47;;;;;;;6.20;3.17;;;;;;;1.93;74.99;100033.34;5047913;28;20486;-78
2024/01/29 08:30:13;;;;;;;7.20;2.80;;;;;;;1.91;75.18;100030.91;5052751;28;20541;-79
2024/01/29 08:32:39;;;;;;;3.53;2.92;;;;;;;1.93;75.32;100030.72;5052607;28;20119;-79
2024/01/29 08:35:05;;;;;;;6.50;3.28;;;;;;;1.69;75.85;100009.66;5052292;28;20041;-78
2024/01/29 08:37:31;;;;;;;4.07;2.85;;;;;;;1.81;76.08;100014.47;5054156;28;20033;-78
2024/01/29 08:39:56;;;;;;;8.15;3.42;;;;;;;1.66;75.64;100010.78;5046992;28;20073;-78
2024/01/29 08:42:21;;;;;;;5.57;3.42;;;;;;;1.81;76.17;100024.16;5053872;28;20039;-78
2024/01/29 08:44:47;;;;;;;4.60;3.22;;;;;;;1.80;76.23;100018.06;5055052;28;20024;-78
2024/01/29 08:47:12;;;;;;;5.78;3.30;;;;;;;1.79;75.95;100018.22;5036506;28;20151;-78
2024/01/29 08:49:38;;;;;;;3.97;2.85;;;;;;;1.86;76.18;100017.41;5054941;28;20063;-78
2024/01/29 08:52:04;;;;;;;5.25;3.55;;;;;;;1.86;76.20;100016.56;5056318;28;20028;-78
2024/01/29 08:54:29;;;;;;;4.88;3.33;;;;;;;1.78;76.03;100008.69;5056202;28;20028;-78
2024/01/29 08:56:54;;;;;;;3.85;3.08;;;;;;;1.98;75.99;100015.28;5035860;28;20493;-78
2024/01/29 08:59:21;;;;;;;4.50;2.80;;;;;;;1.87;76.05;100005.06;5035688;28;20115;-78
2024/01/29 09:01:46;;;;;;;6.32;3.83;;;;;;;1.87;76.66;100012.97;5054176;28;20025;-78
2024/01/29 09:04:12;;;;;;;4.55;2.97;;;;;;;1.96;76.46;100020.72;5055121;28;20079;-78
2024/01/29 09:06:37;;;;;;;5.22;3.38;;;;;;;2.03;75.89;100019.03;5055456;28;20025;-78
2024/01/29 09:09:03;;;;;;;3.38;3.03;;;;;;;1.94;76.61;100006.06;5055553;28;20107;-78
2024/01/29 09:11:28;;;;;;;5.05;3.33;;;;;;;1.93;76.82;100022.81;5036876;28;20055;-78
2024/01/29 09:13:54;;;;;;;3.95;3.45;;;;;;;2.06;76.52;100021.34;5054241;28;20486;-78
2024/01/29 09:16:19;;;;;;;4.13;2.70;;;;;;;2.10;76.16;100022.66;5055152;28;20029;-78
2024/01/29 09:18:44;;;;;;;6.95;4.07;;;;;;;1.90;76.12;100015.28;5052471;28;20037;-78
2024/01/29 09:21:10;;;;;;;6.55;3.38;;;;;;;1.93;76.65;100012.31;5053786;28;20106;-78
2024/01/29 09:23:37;;;;;;;5.13;3.40;;;;;;;1.92;76.98;100021.19;5051484;28;20175;-78
2024/01/29 09:26:02;;;;;;;11.68;6.60;;;;;;;2.01;76.83;100015.75;5046675;28;20020;-79
2024/01/29 09:28:28;;;;;;;10.00;4.88;;;;;;;2.16;76.40;100026.47;5034645;28;20400;-79
2024/01/29 09:30:53;;;;;;;7.25;4.03;;;;;;;2.12;76.40;100028.59;5051460;28;20481;-79
2024/01/29 09:33:19;;;;;;;10.25;3.88;;;;;;;2.17;76.31;100017.56;5046304;28;20028;-79
2024/01/29 09:35:45;;;;;;;8.70;5.50;;;;;;;2.16;76.44;100015.94;5050324;28;20397;-79
2024/01/29 09:38:11;;;;;;;6.72;3.97;;;;;;;2.22;76.11;100015.25;5046027;28;20096;-79
2024/01/29 09:40:36;;;;;;;10.85;5.45;;;;;;;2.12;76.10;100015.41;5049312;28;20029;-79
2024/01/29 09:43:05;;;;;;;7.40;4.53;;;;;;;2.34;76.35;100021.00;5051229;28;20043;-79
2024/01/29 09:45:33;;;;;;;9.38;5.03;;;;;;;2.21;76.67;100018.88;5049815;28;20053;-79
2024/01/29 09:47:59;;;;;;;9.82;4.95;;;;;;;2.23;76.58;100019.50;5051398;28;20048;-79
2024/01/29 09:50:26;;;;;;;10.60;4.47;;;;;;;2.20;76.80;100027.78;5050709;28;20028;-79
2024/01/29 09:52:54;;;;;;;7.53;4.80;;;;;;;2.25;76.72;100028.06;5050843;28;20036;-79
2024/01/29 09:55:19;;;;;;;7.63;4.45;;;;;;;2.39;77.01;100027.41;5050374;28;20036;-79
2024/01/29 09:57:45;;;;;;;6.63;4.13;;;;;;;2.29;76.75;100019.66;5049212;28;20051;-79
2024/01/29 10:00:12;;;;;;;4.88;3.67;;;;;;;2.42;76.71;100032.34;5033225;28;20072;-79
2024/01/29 10:02:41;;;;;;;6.57;4.80;;;;;;;2.41;76.77;100032.50;5049695;28;20524;-79
2024/01/29 10:05:11;;;;;;;6.43;4.03;;;;;;;2.46;76.52;100028.41;5044045;28;20079;-78
2024/01/29 10:07:37;;;;;;;6.97;4.38;;;;;;;2.46;76.40;100024.94;5050816;28;20024;-78
2024/01/29 10:10:09;;;;;;;6.70;4.55;;;;;;;2.38;75.92;100019.69;5051315;28;20032;-77
2024/01/29 10:12:35;;;;;;;6.25;4.50;;;;;;;2.49;76.39;100029.88;5042503;28;20025;-78
2024/01/29 10:15:00;;;;;;;6.00;3.75;;;;;;;2.58;76.55;100023.59;5043144;28;20041;-78
2024/01/29 10:17:26;;;;;;;6.70;4.38;;;;;;;2.67;76.60;100030.47;5043695;28;20044;-78
2024/01/29 10:19:51;;;;;;;6.40;4.00;;;;;;;2.63;76.59;100018.63;5050231;28;20113;-78
2024/01/29 10:22:17;;;;;;;6.70;3.97;;;;;;;2.67;76.80;100028.66;5042787;28;20473;-78
2024/01/29 10:24:43;;;;;;;4.82;3.92;;;;;;;2.58;76.38;100023.59;5050742;28;20020;-77
2024/01/29 10:27:09;;;;;;;7.78;4.03;;;;;;;2.65;76.19;100021.91;5050828;28;20033;-77
2024/01/29 10:29:49;;;;;;;5.13;3.85;;;;;;;2.62;76.31;100015.16;5042716;28;20059;-77
2024/01/29 10:32:15;;;;;;;8.38;4.30;;;;;;;2.72;76.46;100020.25;5050813;28;20021;-77
2024/01/29 10:34:41;;;;;;;4.25;3.63;;;;;;;2.89;76.13;100021.84;5047407;28;20497;-78
2024/01/29 10:37:06;;;;;;;5.70;4.10;;;;;;;2.77;76.55;100017.94;5044253;28;20033;-78
2024/01/29 10:39:34;;;;;;;6.15;4.18;;;;;;;2.79;76.25;100015.94;5051034;28;20033;-78
2024/01/29 10:42:01;;;;;;;6.47;4.80;;;;;;;2.84;76.20;100022.34;5046345;28;20041;-78
2024/01/29 10:44:29;;;;;;;4.47;3.83;;;;;;;2.88;76.60;100031.56;5037705;28;20104;-78
2024/01/29 10:46:58;;;;;;;9.55;4.82;;;;;;;2.88;76.41;100026.28;5049929;28;20024;-78
2024/01/29 10:49:24;;;;;;;8.48;5.22;;;;;;;2.89;76.74;100025.31;5049770;28;20036;-78
2024/01/29 10:51:53;;;;;;;5.05;3.97;;;;;;;3.02;76.49;100033.50;5042186;28;20025;-78
2024/01/29 10:54:19;;;;;;;6.65;4.72;;;;;;;3.06;76.37;100039.22;5049528;28;20051;-77
2024/01/29 10:56:46;;;;;;;11.70;6.43;;;;;;;3.11;76.95;100044.00;5048104;28;20053;-79
2024/01/29 10:59:13;;;;;;;8.20;4.50;;;;;;;3.27;76.07;100034.22;5048557;28;20135;-78
2024/01/29 11:01:38;;;;;;;6.75;4.40;;;;;;;3.20;76.47;100029.78;5060538;28;20063;-77
2024/01/29 11:04:06;;;;;;;8.82;4.20;;;;;;;3.24;76.95;100031.09;5064456;28;20013;-82
2024/01/29 11:06:44;;;;;;;7.05;4.15;;;;;;;3.34;76.76;100031.72;5075059;28;20017;-80
2024/01/29 11:09:16;;;;;;;5.70;3.92;;;;;;;3.35;76.36;100017.50;5055671;28;20021;-78
2024/01/29 11:11:46;;;;;;;5.95;3.78;;;;;;;3.45;77.10;100018.91;5056556;28;20123;-79
2024/01/29 11:14:11;;;;;;;5.80;4.53;;;;;;;3.43;77.48;100013.00;5057815;28;20040;-79
2024/01/29 11:16:37;;;;;;;6.95;4.32;;;;;;;3.54;76.93;100014.41;5052395;28;20044;-78
2024/01/29 11:19:03;;;;;;;6.80;4.65;;;;;;;3.58;76.10;99992.78;5057167;28;20113;-79
2024/01/29 11:21:28;;;;;;;8.50;4.70;;;;;;;3.60;76.30;100001.34;5055724;28;20496;-78
2024/01/29 11:23:57;;;;;;;7.85;4.88;;;;;;;3.73;76.94;99998.13;5056495;28;20059;-78
2024/01/29 11:26:26;;;;;;;11.10;4.50;;;;;;;3.77;76.33;99994.13;5051194;28;20398;-79
2024/01/29 11:28:56;;;;;;;9.02;4.82;;;;;;;3.67;76.99;99983.81;5053687;28;20028;-78
2024/01/29 11:31:21;;;;;;;9.80;4.35;;;;;;;3.86;76.77;99994.91;5058054;28;20036;-78
2024/01/29 11:33:46;;;;;;;4.93;3.65;;;;;;;3.92;76.34;99986.25;5052327;28;20037;-78